createdAt,value
2022-08-17T00:00:49.424Z,4.42
2022-08-17T00:03:10.592Z,4.67
2022-08-17T00:05:40.367Z,5.97
2022-08-17T00:08:09.101Z,5.15
2022-08-17T00:10:37.383Z,6.90
2022-08-17T00:13:06.390Z,6.00
2022-08-17T00:15:34.838Z,6.75
2022-08-17T00:18:03.168Z,6.15
2022-08-17T00:20:34.888Z,6.30
2022-08-17T00:23:05.836Z,5.95
2022-08-17T00:25:34.353Z,6.37
2022-08-17T00:28:02.773Z,7.10
2022-08-17T00:30:31.280Z,6.25
2022-08-17T00:33:12.525Z,6.03
2022-08-17T00:35:31.050Z,6.67
2022-08-17T00:37:59.359Z,7.65
2022-08-17T00:40:27.664Z,6.25
2022-08-17T00:42:57.650Z,5.87
2022-08-17T00:45:25.889Z,5.85
2022-08-17T00:47:54.129Z,5.33
2022-08-17T00:50:22.343Z,5.65
2022-08-17T00:52:52.225Z,5.60
2022-08-17T00:55:20.529Z,7.35
2022-08-17T00:57:55.425Z,5.33
2022-08-17T01:00:26.063Z,4.97
2022-08-17T01:02:58.549Z,5.47
2022-08-17T01:05:28.314Z,6.47
2022-08-17T01:07:57.343Z,6.00
2022-08-17T01:10:59.496Z,6.53
2022-08-17T01:12:57.170Z,6.12
2022-08-17T01:15:25.790Z,6.03
2022-08-17T01:17:54.033Z,7.90
2022-08-17T01:20:22.334Z,7.33
2022-08-17T01:22:50.787Z,5.42
2022-08-17T01:25:19.848Z,6.92
2022-08-17T01:27:51.853Z,5.45
2022-08-17T01:30:56.716Z,6.63
2022-08-17T01:32:50.149Z,7.35
2022-08-17T01:35:18.447Z,5.50
2022-08-17T01:37:46.956Z,5.28
2022-08-17T01:40:16.663Z,5.22
2022-08-17T01:42:58.519Z,6.10
2022-08-17T01:45:32.002Z,7.33
2022-08-17T01:48:00.901Z,5.97
2022-08-17T01:50:30.919Z,5.08
2022-08-17T01:53:00.697Z,4.75
2022-08-17T01:55:33.403Z,5.00
2022-08-17T01:58:01.582Z,5.50
2022-08-17T02:01:01.016Z,4.90
2022-08-17T02:03:00.386Z,4.97
2022-08-17T02:05:28.612Z,4.40
2022-08-17T02:08:00.815Z,6.80
2022-08-17T02:10:33.871Z,5.40
2022-08-17T02:13:00.842Z,5.80
2022-08-17T02:15:30.685Z,5.83
2022-08-17T02:17:58.874Z,5.33
2022-08-17T02:20:41.876Z,8.03
2022-08-17T02:22:57.018Z,5.10
2022-08-17T02:25:25.259Z,6.25
2022-08-17T02:27:55.049Z,4.87
2022-08-17T02:31:00.093Z,5.08
2022-08-17T02:32:57.089Z,6.15
2022-08-17T02:35:25.321Z,5.05
2022-08-17T02:37:56.118Z,7.50
2022-08-17T02:40:35.062Z,5.05
2022-08-17T02:42:55.964Z,4.92
2022-08-17T02:45:25.037Z,5.45
2022-08-17T02:47:54.209Z,4.70
2022-08-17T02:50:24.051Z,4.87
2022-08-17T02:53:02.552Z,6.22
2022-08-17T02:55:24.678Z,5.03
2022-08-17T02:57:53.083Z,5.30
2022-08-17T03:00:22.852Z,5.25
2022-08-17T03:02:52.012Z,7.87
2022-08-17T03:05:21.583Z,5.25
2022-08-17T03:07:49.821Z,5.28
2022-08-17T03:10:18.768Z,5.20
2022-08-17T03:12:47.087Z,4.60
2022-08-17T03:15:17.443Z,5.12
2022-08-17T03:17:45.852Z,5.83
2022-08-17T03:20:14.667Z,5.67
2022-08-17T03:22:48.013Z,5.10
2022-08-17T03:25:15.563Z,5.33
2022-08-17T03:27:45.470Z,4.72
2022-08-17T03:30:15.344Z,5.65
2022-08-17T03:32:45.150Z,5.75
2022-08-17T03:35:14.561Z,6.25
2022-08-17T03:37:44.441Z,9.75
2022-08-17T03:40:12.946Z,6.75
2022-08-17T03:42:41.589Z,6.17
2022-08-17T03:45:14.050Z,7.75
2022-08-17T03:47:59.486Z,5.92
2022-08-17T03:50:45.302Z,5.97
2022-08-17T03:53:32.933Z,15.95
2022-08-17T03:56:19.818Z,5.75
2022-08-17T03:58:48.229Z,5.28
2022-08-17T04:01:17.773Z,6.12
2022-08-17T04:03:46.019Z,6.47
2022-08-17T04:06:15.024Z,4.15
2022-08-17T04:08:43.220Z,4.37
2022-08-17T04:11:11.469Z,5.60
2022-08-17T04:13:39.737Z,3.52
2022-08-17T04:16:08.034Z,5.22
2022-08-17T04:18:36.280Z,4.72
2022-08-17T04:21:06.019Z,4.28
2022-08-17T04:23:35.912Z,5.58
2022-08-17T04:26:04.589Z,4.85
2022-08-17T04:28:32.751Z,4.67
2022-08-17T04:31:04.527Z,5.92
2022-08-17T04:33:32.837Z,6.25
2022-08-17T04:36:02.623Z,4.28
2022-08-17T04:38:32.464Z,4.60
2022-08-17T04:41:18.285Z,4.67
2022-08-17T04:43:47.411Z,4.30
2022-08-17T04:46:17.198Z,3.65
2022-08-17T04:48:46.717Z,4.12
2022-08-17T04:51:19.619Z,4.70
2022-08-17T04:53:53.967Z,6.12
2022-08-17T04:56:19.197Z,4.25
2022-08-17T04:58:49.724Z,4.12
2022-08-17T05:01:23.086Z,5.75
2022-08-17T05:03:48.570Z,4.42
2022-08-17T05:06:16.803Z,4.28
2022-08-17T05:08:45.004Z,3.67
2022-08-17T05:11:14.523Z,4.00
2022-08-17T05:13:42.844Z,5.20
2022-08-17T05:16:11.183Z,3.67
2022-08-17T05:18:39.575Z,3.75
2022-08-17T05:21:08.094Z,4.30
2022-08-17T05:23:42.676Z,4.12
2022-08-17T05:26:07.915Z,3.85
2022-08-17T05:28:37.268Z,3.70
2022-08-17T05:31:06.447Z,4.28
2022-08-17T05:33:36.574Z,3.45
2022-08-17T05:36:08.877Z,3.60
2022-08-17T05:38:38.830Z,5.05
2022-08-17T05:41:08.055Z,3.70
2022-08-17T05:43:38.096Z,4.25
2022-08-17T05:46:13.842Z,3.77
2022-08-17T05:48:43.779Z,3.52
2022-08-17T05:51:29.829Z,4.15
2022-08-17T05:54:16.161Z,3.72
2022-08-17T05:56:45.863Z,3.72
2022-08-17T05:59:30.844Z,3.60
2022-08-17T06:02:00.682Z,3.10
2022-08-17T06:04:33.434Z,2.90
2022-08-17T06:09:42.821Z,2.87
2022-08-17T06:12:19.893Z,2.83
2022-08-17T06:14:46.920Z,2.60
2022-08-17T06:17:16.949Z,3.60
2022-08-17T06:19:46.734Z,3.33
2022-08-17T06:22:16.523Z,3.42
2022-08-17T06:24:49.898Z,3.75
2022-08-17T06:27:22.762Z,3.50
2022-08-17T06:29:52.550Z,3.35
2022-08-17T06:32:20.932Z,3.30
2022-08-17T06:34:49.249Z,4.08
2022-08-17T06:37:21.973Z,4.47
2022-08-17T06:40:04.625Z,4.83
2022-08-17T06:42:54.929Z,4.10
2022-08-17T06:45:20.932Z,6.60
2022-08-17T06:48:09.307Z,5.60
2022-08-17T06:50:41.065Z,4.15
2022-08-17T06:53:13.856Z,4.97
2022-08-17T06:58:16.346Z,6.12
2022-08-17T07:00:45.962Z,4.53
2022-08-17T07:03:32.161Z,5.67
2022-08-17T07:06:01.998Z,4.83
2022-08-17T07:08:35.017Z,5.37
2022-08-17T07:11:04.942Z,4.47
2022-08-17T07:13:40.667Z,4.75
2022-08-17T07:16:14.898Z,5.37
2022-08-17T07:18:43.719Z,5.17
2022-08-17T07:21:17.568Z,5.47
2022-08-17T07:23:50.993Z,5.03
2022-08-17T07:26:19.279Z,6.20
2022-08-17T07:28:47.814Z,5.45
2022-08-17T07:31:17.535Z,8.10
2022-08-17T07:33:47.304Z,5.22
2022-08-17T07:36:29.774Z,6.83
2022-08-17T07:38:57.345Z,5.80
2022-08-17T07:41:25.605Z,7.30
2022-08-17T07:43:56.713Z,5.53
2022-08-17T07:46:47.455Z,5.03
2022-08-17T07:49:17.285Z,6.50
2022-08-17T07:51:47.077Z,5.95
2022-08-17T07:54:21.427Z,8.45
2022-08-17T07:56:52.225Z,5.33
2022-08-17T07:59:23.508Z,7.67
2022-08-17T08:02:01.122Z,7.08
2022-08-17T08:07:10.279Z,7.67
2022-08-17T08:12:32.702Z,5.80
2022-08-17T08:14:57.680Z,7.83
2022-08-17T08:17:27.658Z,6.92
2022-08-17T08:19:56.103Z,6.33
2022-08-17T08:22:27.565Z,6.50
2022-08-17T08:25:03.030Z,5.80
2022-08-17T08:27:38.847Z,7.35
2022-08-17T08:30:08.650Z,6.33
2022-08-17T08:32:48.448Z,7.25
2022-08-17T08:35:21.591Z,7.00
2022-08-17T08:37:55.416Z,7.30
2022-08-17T08:40:41.833Z,7.40
2022-08-17T08:43:17.595Z,6.80
2022-08-17T08:45:48.623Z,6.95
2022-08-17T08:48:23.073Z,8.08
2022-08-17T08:50:50.140Z,8.50
2022-08-17T08:53:38.058Z,7.87
2022-08-17T08:56:07.850Z,7.37
2022-08-17T08:58:41.647Z,7.85
2022-08-17T09:01:09.264Z,9.18
2022-08-17T09:03:52.658Z,7.40
2022-08-17T09:06:33.638Z,8.58
2022-08-17T09:09:08.508Z,7.35
2022-08-17T09:12:02.429Z,7.20
2022-08-17T09:14:21.137Z,6.80
2022-08-17T09:17:06.976Z,7.90
2022-08-17T09:19:37.961Z,6.03
2022-08-17T09:22:09.434Z,6.30
2022-08-17T09:24:39.899Z,6.62
2022-08-17T09:27:21.468Z,7.95
2022-08-17T09:29:51.336Z,9.95
2022-08-17T09:32:36.163Z,7.90
2022-08-17T09:35:09.079Z,7.08
2022-08-17T09:37:56.786Z,7.25
2022-08-17T09:40:29.526Z,7.35
2022-08-17T09:45:32.900Z,8.85
2022-08-17T09:48:20.863Z,10.93
2022-08-17T09:51:04.727Z,7.95
2022-08-17T09:53:26.610Z,7.75
2022-08-17T09:56:08.568Z,8.43
2022-08-17T09:58:44.037Z,8.45
2022-08-17T10:01:17.120Z,7.97
2022-08-17T10:03:48.839Z,9.25
2022-08-17T10:06:22.189Z,9.73
2022-08-17T10:08:54.135Z,8.48
2022-08-17T10:14:12.519Z,8.25
2022-08-17T10:16:38.218Z,7.67
2022-08-17T10:19:17.051Z,8.85
2022-08-17T10:22:19.331Z,11.53
2022-08-17T10:25:02.055Z,12.95
2022-08-17T10:27:28.271Z,10.93
2022-08-17T10:29:58.301Z,11.80
2022-08-17T10:32:28.212Z,9.65
2022-08-17T10:35:10.159Z,9.45
2022-08-17T10:37:48.678Z,9.73
2022-08-17T10:40:26.541Z,9.05
2022-08-17T10:42:59.411Z,10.15
2022-08-17T10:45:29.579Z,10.82
2022-08-17T10:48:06.071Z,9.50
2022-08-17T10:50:44.287Z,11.93
2022-08-17T10:53:17.930Z,10.25
2022-08-17T10:55:45.554Z,12.10
2022-08-17T10:58:24.531Z,12.63
2022-08-17T11:00:55.990Z,10.35
2022-08-17T11:03:25.980Z,11.70
2022-08-17T11:06:12.619Z,11.45
2022-08-17T11:08:48.060Z,13.10
2022-08-17T11:11:35.754Z,12.05
2022-08-17T11:14:10.081Z,14.45
2022-08-17T11:16:42.993Z,14.30
2022-08-17T11:19:30.921Z,12.23
2022-08-17T11:22:03.603Z,13.70
2022-08-17T11:24:35.846Z,14.47
2022-08-17T11:27:09.099Z,12.63
2022-08-17T11:30:01.496Z,11.30
2022-08-17T11:32:29.500Z,12.58
2022-08-17T11:35:09.900Z,15.45
2022-08-17T11:37:40.052Z,15.43
2022-08-17T11:40:12.507Z,13.35
2022-08-17T11:42:45.495Z,12.50
2022-08-17T11:45:32.357Z,14.55
2022-08-17T11:48:27.992Z,12.68
2022-08-17T11:51:14.034Z,15.83
2022-08-17T11:53:43.927Z,12.80
2022-08-17T11:56:31.449Z,16.75
2022-08-17T11:59:00.674Z,14.70
2022-08-17T12:01:33.407Z,14.58
2022-08-17T12:06:32.399Z,17.12
2022-08-17T12:09:02.431Z,15.90
2022-08-17T12:12:01.542Z,14.75
2022-08-17T12:14:02.254Z,15.18
2022-08-17T12:16:30.630Z,14.25
2022-08-17T12:19:02.214Z,16.52
2022-08-17T12:21:34.921Z,16.70
2022-08-17T12:26:34.151Z,15.30
2022-08-17T12:29:04.334Z,15.45
2022-08-17T12:31:37.970Z,19.35
2022-08-17T12:36:34.267Z,14.43
2022-08-17T12:39:14.387Z,14.20
2022-08-17T12:41:40.665Z,15.72
2022-08-17T12:44:13.381Z,15.28
2022-08-17T12:49:16.787Z,16.05
2022-08-17T12:51:48.614Z,13.98
2022-08-17T12:54:21.557Z,13.38
2022-08-17T12:56:49.919Z,14.53
2022-08-17T12:59:29.622Z,17.37
2022-08-17T13:01:50.258Z,16.05
2022-08-17T13:04:19.284Z,14.23
2022-08-17T13:06:49.127Z,17.77
2022-08-17T13:09:21.723Z,17.02
2022-08-17T13:11:53.278Z,16.37
2022-08-17T13:14:22.050Z,16.70
2022-08-17T13:16:52.375Z,17.15
2022-08-17T13:19:35.175Z,18.67
2022-08-17T13:21:53.358Z,19.35
2022-08-17T13:24:23.667Z,22.13
2022-08-17T13:26:54.342Z,21.17
2022-08-17T13:29:24.210Z,20.80
2022-08-17T13:32:02.736Z,20.82
2022-08-17T13:34:28.277Z,18.42
2022-08-17T13:37:14.426Z,19.60
2022-08-17T13:39:43.161Z,19.20
2022-08-17T13:42:29.578Z,18.50
2022-08-17T13:44:58.207Z,21.65
2022-08-17T13:47:27.333Z,18.77
2022-08-17T13:49:56.026Z,20.95
2022-08-17T13:52:38.117Z,18.42
2022-08-17T13:55:10.880Z,17.40
2022-08-17T13:57:39.184Z,16.90
2022-08-17T14:00:12.648Z,18.00
2022-08-17T14:02:40.996Z,18.27
2022-08-17T14:05:09.412Z,19.10
2022-08-17T14:07:40.607Z,18.45
2022-08-17T14:10:17.133Z,20.65
2022-08-17T14:12:46.080Z,19.48
2022-08-17T14:15:15.888Z,18.50
2022-08-17T14:17:44.197Z,20.23
2022-08-17T14:20:13.138Z,17.15
2022-08-17T14:22:43.160Z,18.20
2022-08-17T14:25:12.898Z,16.93
2022-08-17T14:27:52.362Z,15.32
2022-08-17T14:30:11.414Z,15.25
2022-08-17T14:32:41.350Z,17.23
2022-08-17T14:35:10.649Z,15.32
2022-08-17T14:37:39.234Z,16.42
2022-08-17T14:40:09.124Z,17.27
2022-08-17T14:42:38.447Z,15.18
2022-08-17T14:45:30.045Z,16.17
2022-08-17T14:47:39.872Z,17.17
2022-08-17T14:50:11.201Z,18.55
2022-08-17T14:52:42.741Z,17.12
2022-08-17T14:55:12.646Z,17.92
2022-08-17T14:57:43.948Z,19.02
2022-08-17T15:00:12.784Z,19.00
2022-08-17T15:02:45.670Z,17.17
2022-08-17T15:05:14.517Z,17.23
2022-08-17T15:07:44.414Z,16.23
2022-08-17T15:10:13.930Z,17.75
2022-08-17T15:12:42.866Z,19.42
2022-08-17T15:15:12.122Z,16.97
2022-08-17T15:17:54.766Z,16.62
2022-08-17T15:20:15.143Z,16.33
2022-08-17T15:22:44.365Z,15.15
2022-08-17T15:25:13.333Z,15.48
2022-08-17T15:27:42.065Z,16.07
2022-08-17T15:30:10.915Z,16.65
2022-08-17T15:32:50.646Z,15.83
2022-08-17T15:35:12.637Z,18.85
2022-08-17T15:37:41.902Z,16.37
2022-08-17T15:40:11.187Z,18.05
2022-08-17T15:42:45.625Z,18.40
2022-08-17T15:45:14.494Z,18.02
2022-08-17T15:47:43.151Z,17.55
2022-08-17T15:50:11.521Z,19.25
2022-08-17T15:52:42.919Z,18.17
2022-08-17T15:55:12.567Z,17.60
2022-08-17T15:57:43.945Z,16.12
2022-08-17T16:00:12.264Z,19.65
2022-08-17T16:03:44.312Z,14.85
2022-08-17T16:05:15.479Z,17.35
2022-08-17T16:07:45.368Z,17.55
2022-08-17T16:10:18.632Z,15.30
2022-08-17T16:12:46.770Z,13.40
2022-08-17T16:15:16.034Z,14.25
2022-08-17T16:17:44.286Z,11.50
2022-08-17T16:20:20.333Z,12.45
2022-08-17T16:22:45.241Z,11.28
2022-08-17T16:25:15.106Z,11.40
2022-08-17T16:27:43.854Z,9.43
2022-08-17T16:30:17.322Z,8.58
2022-08-17T16:32:44.282Z,9.68
2022-08-17T16:35:14.893Z,9.10
2022-08-17T16:37:45.376Z,11.22
2022-08-17T16:40:14.214Z,11.35
2022-08-17T16:42:47.936Z,9.33
2022-08-17T16:45:18.569Z,8.50
2022-08-17T16:47:48.631Z,9.00
2022-08-17T16:50:18.117Z,7.87
2022-08-17T16:52:50.068Z,6.47
2022-08-17T16:55:19.954Z,8.03
2022-08-17T16:57:50.574Z,7.65
2022-08-17T17:00:20.630Z,7.10
2022-08-17T17:02:49.540Z,6.83
2022-08-17T17:05:28.564Z,7.62
2022-08-17T17:07:58.446Z,6.30
2022-08-17T17:10:40.461Z,6.25
2022-08-17T17:13:10.248Z,7.13
2022-08-17T17:15:41.347Z,5.85
2022-08-17T17:18:11.187Z,7.37
2022-08-17T17:20:41.615Z,5.53
2022-08-17T17:23:11.542Z,6.65
2022-08-17T17:25:51.385Z,5.97
2022-08-17T17:28:36.225Z,7.05
2022-08-17T17:31:05.925Z,6.17
2022-08-17T17:33:41.631Z,6.92
2022-08-17T17:36:23.198Z,7.22
2022-08-17T17:38:53.459Z,5.97
2022-08-17T17:41:32.185Z,5.85
2022-08-17T17:44:04.927Z,6.58
2022-08-17T17:46:34.990Z,6.42
2022-08-17T17:49:03.312Z,6.35
2022-08-17T17:52:06.778Z,6.35
2022-08-17T17:54:31.584Z,7.03
2022-08-17T17:57:04.720Z,5.67
2022-08-17T17:59:50.906Z,5.30
2022-08-17T18:02:52.152Z,5.92
2022-08-17T18:05:28.181Z,6.10
2022-08-17T18:07:57.990Z,5.45
2022-08-17T18:10:45.314Z,5.65
2022-08-17T18:13:16.766Z,5.05
2022-08-17T18:15:50.887Z,5.33
2022-08-17T18:18:20.870Z,7.40
2022-08-17T18:20:53.941Z,5.60
2022-08-17T18:23:28.061Z,5.97
2022-08-17T18:25:54.144Z,5.58
2022-08-17T18:28:25.244Z,5.45
2022-08-17T18:31:13.426Z,4.72
2022-08-17T18:33:43.409Z,5.25
2022-08-17T18:36:12.114Z,5.50
2022-08-17T18:38:42.247Z,5.87
2022-08-17T18:41:12.064Z,12.88
2022-08-17T18:43:52.633Z,7.15
2022-08-17T18:46:17.751Z,7.25
2022-08-17T18:48:53.320Z,6.70
2022-08-17T18:51:26.316Z,8.68
2022-08-17T18:54:11.389Z,5.78
2022-08-17T18:56:41.243Z,7.45
2022-08-17T18:59:11.095Z,8.23
2022-08-17T19:01:52.795Z,7.35
2022-08-17T19:04:15.747Z,7.95
2022-08-17T19:06:43.994Z,12.73
2022-08-17T19:09:16.739Z,7.90
2022-08-17T19:14:15.791Z,7.60
2022-08-17T19:17:00.746Z,7.60
2022-08-17T19:19:30.507Z,7.78
2022-08-17T19:22:00.370Z,8.60
2022-08-17T19:24:30.210Z,7.60
2022-08-17T19:27:03.044Z,6.40
2022-08-17T19:29:34.530Z,10.40
2022-08-17T19:32:02.921Z,6.60
2022-08-17T19:34:34.262Z,6.92
2022-08-17T19:37:16.394Z,7.25
2022-08-17T19:39:55.090Z,9.13
2022-08-17T19:42:28.216Z,9.88
2022-08-17T19:45:01.620Z,9.55
2022-08-17T19:47:57.849Z,6.97
2022-08-17T19:50:22.373Z,7.03
2022-08-17T19:52:55.476Z,6.33
2022-08-17T19:55:33.929Z,8.50
2022-08-17T19:58:03.801Z,8.65
2022-08-17T20:00:33.602Z,6.83
2022-08-17T20:03:16.846Z,8.20
2022-08-17T20:06:10.938Z,8.68
2022-08-17T20:08:21.114Z,7.53
2022-08-17T20:13:33.172Z,9.08
2022-08-17T20:15:50.211Z,8.95
2022-08-17T20:18:38.379Z,8.55
2022-08-17T20:21:19.726Z,7.90
2022-08-17T20:23:47.877Z,9.43
2022-08-17T20:29:03.418Z,8.90
2022-08-17T20:31:49.649Z,8.03
2022-08-17T20:34:33.512Z,9.33
2022-08-17T20:37:03.010Z,9.00
2022-08-17T20:39:39.734Z,8.03
2022-08-17T20:42:09.623Z,9.13
2022-08-17T20:44:39.452Z,8.50
2022-08-17T20:47:13.848Z,9.73
2022-08-17T20:49:45.284Z,7.90
2022-08-17T20:52:16.241Z,9.43
2022-08-17T20:54:49.836Z,7.83
2022-08-17T20:57:34.848Z,9.35
2022-08-17T21:00:17.815Z,9.45
2022-08-17T21:05:34.831Z,8.98
2022-08-17T21:08:07.527Z,8.65
2022-08-17T21:10:36.978Z,10.10
2022-08-17T21:13:24.293Z,11.70
2022-08-17T21:15:54.063Z,10.05
2022-08-17T21:18:23.863Z,10.20
2022-08-17T21:21:06.257Z,10.15
2022-08-17T21:23:36.130Z,9.65
2022-08-17T21:26:05.929Z,9.80
2022-08-17T21:29:00.628Z,9.40
2022-08-17T21:31:22.340Z,11.65
2022-08-17T21:33:52.389Z,12.68
2022-08-17T21:36:25.408Z,12.95
2022-08-17T21:38:57.700Z,13.58
2022-08-17T21:41:27.591Z,13.38
2022-08-17T21:43:57.443Z,14.33
2022-08-17T21:46:27.528Z,14.85
2022-08-17T21:48:58.179Z,14.93
2022-08-17T21:51:28.524Z,12.18
2022-08-17T21:54:03.977Z,11.55
2022-08-17T21:56:33.851Z,15.28
2022-08-17T21:59:03.595Z,14.10
2022-08-17T22:01:36.674Z,12.50
2022-08-17T22:04:08.242Z,13.53
2022-08-17T22:06:40.561Z,14.65
2022-08-17T22:09:19.429Z,14.68
2022-08-17T22:11:55.414Z,16.12
2022-08-17T22:14:25.573Z,14.58
2022-08-17T22:17:10.643Z,14.65
2022-08-17T22:19:39.093Z,15.93
2022-08-17T22:22:11.638Z,17.00
2022-08-17T22:24:39.876Z,12.90
2022-08-17T22:27:10.323Z,16.45
2022-08-17T22:29:42.956Z,18.10
2022-08-17T22:32:11.393Z,15.20
2022-08-17T22:34:39.638Z,14.95
2022-08-17T22:37:27.424Z,15.45
2022-08-17T22:39:58.311Z,17.92
2022-08-17T22:42:28.384Z,19.07
2022-08-17T22:44:56.778Z,19.30
2022-08-17T22:47:26.572Z,20.50
2022-08-17T22:49:59.306Z,19.75
2022-08-17T22:52:34.149Z,19.73
2022-08-17T22:55:32.172Z,20.72
2022-08-17T22:58:19.591Z,19.35
2022-08-17T23:00:50.228Z,18.57
2022-08-17T23:03:24.737Z,19.07
2022-08-17T23:06:08.222Z,22.90
2022-08-17T23:08:52.723Z,21.40
2022-08-17T23:11:45.932Z,21.73
2022-08-17T23:13:56.229Z,20.97
2022-08-17T23:16:25.697Z,22.75
2022-08-17T23:18:54.278Z,26.73
2022-08-17T23:21:30.092Z,23.52
2022-08-17T23:23:59.849Z,25.85
2022-08-17T23:26:29.906Z,22.10
2022-08-17T23:28:59.929Z,23.55
2022-08-17T23:31:28.844Z,26.77
2022-08-17T23:33:59.086Z,28.17
2022-08-17T23:36:28.315Z,28.38
2022-08-17T23:38:57.581Z,30.00
2022-08-17T23:41:29.259Z,27.50
2022-08-17T23:43:59.368Z,30.85
2022-08-17T23:46:27.965Z,29.40
2022-08-17T23:48:56.580Z,25.88
2022-08-17T23:51:30.665Z,29.75
2022-08-17T23:54:07.708Z,32.55
2022-08-17T23:56:34.231Z,32.55
2022-08-17T23:59:02.941Z,35.10
